Aviation Digital Data Service (ADDS)

Output produced by METARs form (1047 UTC 20 September 2019)
found at http://aviationweather.gov/metar/data/
 
KTEX 200520Z 2006/2106 16005KT P6SM OVC050 
     FM200800 16012KT P6SM BKN090 
     FM201300 17010G20KT P6SM SCT100 
     FM201800 19015G25KT P6SM SCT100 
     FM210200 22008KT P6SM FEW250